sensor_id;sensor_type;location;lat;lon;timestamp;P1;durP1;ratioP1;P2;durP2;ratioP2
18507;SDS011;9383;50.928;12.116;2023-02-28T00:00:52;5.30;;;4.80;;
18507;SDS011;9383;50.928;12.116;2023-02-28T00:03:19;4.80;;;4.40;;
18507;SDS011;9383;50.928;12.116;2023-02-28T00:05:47;4.47;;;4.07;;
18507;SDS011;9383;50.928;12.116;2023-02-28T00:08:14;6.45;;;4.07;;
18507;SDS011;9383;50.928;12.116;2023-02-28T00:10:41;5.07;;;4.57;;
18507;SDS011;9383;50.928;12.116;2023-02-28T00:13:08;4.90;;;4.50;;
18507;SDS011;9383;50.928;12.116;2023-02-28T00:15:34;4.83;;;4.33;;
18507;SDS011;9383;50.928;12.116;2023-02-28T00:18:02;5.30;;;4.53;;
18507;SDS011;9383;50.928;12.116;2023-02-28T00:20:29;5.17;;;4.67;;
18507;SDS011;9383;50.928;12.116;2023-02-28T00:22:55;4.65;;;4.00;;
18507;SDS011;9383;50.928;12.116;2023-02-28T00:25:23;5.00;;;4.50;;
18507;SDS011;9383;50.928;12.116;2023-02-28T00:27:51;4.20;;;3.90;;
18507;SDS011;9383;50.928;12.116;2023-02-28T00:30:19;4.40;;;4.00;;
18507;SDS011;9383;50.928;12.116;2023-02-28T00:32:48;5.50;;;4.30;;
18507;SDS011;9383;50.928;12.116;2023-02-28T00:35:15;5.03;;;3.83;;
18507;SDS011;9383;50.928;12.116;2023-02-28T00:37:42;4.03;;;3.65;;
18507;SDS011;9383;50.928;12.116;2023-02-28T00:40:09;4.13;;;3.80;;
18507;SDS011;9383;50.928;12.116;2023-02-28T00:42:37;3.47;;;3.17;;
18507;SDS011;9383;50.928;12.116;2023-02-28T00:45:04;4.93;;;3.85;;
18507;SDS011;9383;50.928;12.116;2023-02-28T00:47:31;4.00;;;3.60;;
18507;SDS011;9383;50.928;12.116;2023-02-28T00:49:59;4.45;;;3.75;;
18507;SDS011;9383;50.928;12.116;2023-02-28T00:52:26;3.60;;;3.30;;
18507;SDS011;9383;50.928;12.116;2023-02-28T00:54:52;5.07;;;4.18;;
18507;SDS011;9383;50.928;12.116;2023-02-28T00:57:19;4.15;;;3.85;;
18507;SDS011;9383;50.928;12.116;2023-02-28T00:59:45;4.13;;;3.73;;
18507;SDS011;9383;50.928;12.116;2023-02-28T01:02:12;4.13;;;3.63;;
18507;SDS011;9383;50.928;12.116;2023-02-28T01:04:39;4.83;;;3.80;;
18507;SDS011;9383;50.928;12.116;2023-02-28T01:07:05;4.18;;;3.80;;
18507;SDS011;9383;50.928;12.116;2023-02-28T01:09:32;4.50;;;4.10;;
18507;SDS011;9383;50.928;12.116;2023-02-28T01:11:58;4.20;;;3.90;;
18507;SDS011;9383;50.928;12.116;2023-02-28T01:14:25;4.43;;;4.00;;
18507;SDS011;9383;50.928;12.116;2023-02-28T01:16:51;4.60;;;4.20;;
18507;SDS011;9383;50.928;12.116;2023-02-28T01:19:18;5.03;;;4.22;;
18507;SDS011;9383;50.928;12.116;2023-02-28T01:21:45;4.95;;;4.55;;
18507;SDS011;9383;50.928;12.116;2023-02-28T01:24:13;6.22;;;3.92;;
18507;SDS011;9383;50.928;12.116;2023-02-28T01:26:39;4.90;;;3.55;;
18507;SDS011;9383;50.928;12.116;2023-02-28T01:29:07;4.57;;;3.70;;
18507;SDS011;9383;50.928;12.116;2023-02-28T01:31:33;3.92;;;3.60;;
18507;SDS011;9383;50.928;12.116;2023-02-28T01:34:00;4.78;;;4.38;;
18507;SDS011;9383;50.928;12.116;2023-02-28T01:36:26;3.70;;;3.35;;
18507;SDS011;9383;50.928;12.116;2023-02-28T01:38:53;3.80;;;3.45;;
18507;SDS011;9383;50.928;12.116;2023-02-28T01:41:21;3.80;;;3.50;;
18507;SDS011;9383;50.928;12.116;2023-02-28T01:46:57;3.92;;;3.60;;
18507;SDS011;9383;50.928;12.116;2023-02-28T01:49:23;3.78;;;3.47;;
18507;SDS011;9383;50.928;12.116;2023-02-28T01:51:51;4.18;;;3.88;;
18507;SDS011;9383;50.928;12.116;2023-02-28T01:54:21;4.22;;;3.83;;
18507;SDS011;9383;50.928;12.116;2023-02-28T01:56:56;3.97;;;3.35;;
18507;SDS011;9383;50.928;12.116;2023-02-28T01:59:38;3.97;;;3.57;;
18507;SDS011;9383;50.928;12.116;2023-02-28T02:02:16;3.95;;;3.55;;
18507;SDS011;9383;50.928;12.116;2023-02-28T02:04:51;3.72;;;3.42;;
18507;SDS011;9383;50.928;12.116;2023-02-28T02:07:27;9.80;;;3.95;;
18507;SDS011;9383;50.928;12.116;2023-02-28T02:10:00;3.47;;;3.05;;
18507;SDS011;9383;50.928;12.116;2023-02-28T02:12:44;4.35;;;3.95;;
18507;SDS011;9383;50.928;12.116;2023-02-28T02:15:40;5.10;;;3.83;;
18507;SDS011;9383;50.928;12.116;2023-02-28T02:18:25;5.22;;;3.83;;
18507;SDS011;9383;50.928;12.116;2023-02-28T02:21:01;4.75;;;3.97;;
18507;SDS011;9383;50.928;12.116;2023-02-28T02:23:47;4.05;;;3.65;;
18507;SDS011;9383;50.928;12.116;2023-02-28T02:38:06;3.80;;;3.50;;
18507;SDS011;9383;50.928;12.116;2023-02-28T02:40:43;4.60;;;3.50;;
18507;SDS011;9383;50.928;12.116;2023-02-28T02:43:29;3.67;;;3.13;;
18507;SDS011;9383;50.928;12.116;2023-02-28T02:46:05;4.32;;;3.72;;
18507;SDS011;9383;50.928;12.116;2023-02-28T02:48:45;4.15;;;3.75;;
18507;SDS011;9383;50.928;12.116;2023-02-28T02:51:14;4.00;;;3.70;;
18507;SDS011;9383;50.928;12.116;2023-02-28T02:53:48;3.80;;;3.50;;
18507;SDS011;9383;50.928;12.116;2023-02-28T02:56:28;3.35;;;3.05;;
18507;SDS011;9383;50.928;12.116;2023-02-28T02:58:59;4.00;;;3.60;;
18507;SDS011;9383;50.928;12.116;2023-02-28T03:01:30;5.63;;;4.03;;
18507;SDS011;9383;50.928;12.116;2023-02-28T03:03:59;5.60;;;3.38;;
18507;SDS011;9383;50.928;12.116;2023-02-28T03:06:34;4.30;;;3.85;;
18507;SDS011;9383;50.928;12.116;2023-02-28T03:09:01;4.53;;;3.87;;
18507;SDS011;9383;50.928;12.116;2023-02-28T03:11:27;4.25;;;3.85;;
18507;SDS011;9383;50.928;12.116;2023-02-28T03:23:09;5.23;;;3.60;;
18507;SDS011;9383;50.928;12.116;2023-02-28T03:34:26;4.37;;;3.60;;
18507;SDS011;9383;50.928;12.116;2023-02-28T03:36:59;4.07;;;3.67;;
18507;SDS011;9383;50.928;12.116;2023-02-28T03:39:34;4.23;;;3.83;;
18507;SDS011;9383;50.928;12.116;2023-02-28T03:42:15;4.10;;;3.67;;
18507;SDS011;9383;50.928;12.116;2023-02-28T03:44:48;3.57;;;3.13;;
18507;SDS011;9383;50.928;12.116;2023-02-28T03:47:21;3.83;;;3.53;;
18507;SDS011;9383;50.928;12.116;2023-02-28T03:49:57;3.90;;;3.50;;
18507;SDS011;9383;50.928;12.116;2023-02-28T03:52:33;3.63;;;3.20;;
18507;SDS011;9383;50.928;12.116;2023-02-28T03:55:06;3.97;;;3.60;;
18507;SDS011;9383;50.928;12.116;2023-02-28T04:00:17;3.60;;;3.30;;
18507;SDS011;9383;50.928;12.116;2023-02-28T04:02:53;5.00;;;3.77;;
18507;SDS011;9383;50.928;12.116;2023-02-28T04:05:21;4.27;;;3.83;;
18507;SDS011;9383;50.928;12.116;2023-02-28T04:07:48;3.97;;;3.50;;
18507;SDS011;9383;50.928;12.116;2023-02-28T04:10:14;3.63;;;3.33;;
18507;SDS011;9383;50.928;12.116;2023-02-28T04:12:41;3.80;;;3.50;;
18507;SDS011;9383;50.928;12.116;2023-02-28T04:15:08;3.90;;;3.50;;
18507;SDS011;9383;50.928;12.116;2023-02-28T04:17:35;6.13;;;3.80;;
18507;SDS011;9383;50.928;12.116;2023-02-28T04:20:03;3.60;;;3.30;;
18507;SDS011;9383;50.928;12.116;2023-02-28T04:22:35;4.10;;;3.70;;
18507;SDS011;9383;50.928;12.116;2023-02-28T04:25:02;3.60;;;3.27;;
18507;SDS011;9383;50.928;12.116;2023-02-28T04:27:31;3.50;;;3.10;;
18507;SDS011;9383;50.928;12.116;2023-02-28T04:29:57;4.03;;;3.57;;
18507;SDS011;9383;50.928;12.116;2023-02-28T04:32:23;3.97;;;3.60;;
18507;SDS011;9383;50.928;12.116;2023-02-28T04:34:50;4.23;;;3.20;;
18507;SDS011;9383;50.928;12.116;2023-02-28T04:37:16;3.80;;;3.50;;
18507;SDS011;9383;50.928;12.116;2023-02-28T04:39:43;5.07;;;3.20;;
18507;SDS011;9383;50.928;12.116;2023-02-28T04:42:10;3.60;;;3.30;;
18507;SDS011;9383;50.928;12.116;2023-02-28T04:44:37;3.57;;;3.27;;
18507;SDS011;9383;50.928;12.116;2023-02-28T04:47:04;4.00;;;3.47;;
18507;SDS011;9383;50.928;12.116;2023-02-28T04:49:30;3.37;;;3.07;;
18507;SDS011;9383;50.928;12.116;2023-02-28T04:51:57;4.07;;;3.67;;
18507;SDS011;9383;50.928;12.116;2023-02-28T04:54:23;3.60;;;3.30;;
18507;SDS011;9383;50.928;12.116;2023-02-28T04:56:50;4.00;;;3.60;;
18507;SDS011;9383;50.928;12.116;2023-02-28T04:59:16;5.67;;;3.87;;
18507;SDS011;9383;50.928;12.116;2023-02-28T05:01:45;3.83;;;3.53;;
18507;SDS011;9383;50.928;12.116;2023-02-28T05:04:13;3.97;;;3.67;;
18507;SDS011;9383;50.928;12.116;2023-02-28T05:06:40;4.37;;;3.57;;
18507;SDS011;9383;50.928;12.116;2023-02-28T05:09:06;4.27;;;3.87;;
18507;SDS011;9383;50.928;12.116;2023-02-28T05:11:34;4.50;;;3.97;;
18507;SDS011;9383;50.928;12.116;2023-02-28T05:14:02;4.53;;;3.80;;
18507;SDS011;9383;50.928;12.116;2023-02-28T05:16:29;5.93;;;3.73;;
18507;SDS011;9383;50.928;12.116;2023-02-28T05:18:56;4.13;;;3.73;;
18507;SDS011;9383;50.928;12.116;2023-02-28T05:21:28;4.00;;;3.63;;
18507;SDS011;9383;50.928;12.116;2023-02-28T05:24:20;6.40;;;4.23;;
18507;SDS011;9383;50.928;12.116;2023-02-28T05:26:48;5.57;;;3.80;;
18507;SDS011;9383;50.928;12.116;2023-02-28T05:29:17;4.10;;;3.53;;
18507;SDS011;9383;50.928;12.116;2023-02-28T05:31:43;3.83;;;3.50;;
18507;SDS011;9383;50.928;12.116;2023-02-28T05:34:10;4.30;;;3.90;;
18507;SDS011;9383;50.928;12.116;2023-02-28T05:36:37;4.00;;;3.63;;
18507;SDS011;9383;50.928;12.116;2023-02-28T05:39:05;4.43;;;4.03;;
18507;SDS011;9383;50.928;12.116;2023-02-28T05:41:38;4.87;;;4.37;;
18507;SDS011;9383;50.928;12.116;2023-02-28T05:44:05;7.73;;;5.57;;
18507;SDS011;9383;50.928;12.116;2023-02-28T05:46:32;4.83;;;4.30;;
18507;SDS011;9383;50.928;12.116;2023-02-28T05:48:59;4.87;;;4.33;;
18507;SDS011;9383;50.928;12.116;2023-02-28T05:51:26;5.03;;;4.27;;
18507;SDS011;9383;50.928;12.116;2023-02-28T05:53:53;3.97;;;3.63;;
18507;SDS011;9383;50.928;12.116;2023-02-28T05:56:19;4.50;;;4.10;;
18507;SDS011;9383;50.928;12.116;2023-02-28T05:58:46;5.00;;;4.23;;
18507;SDS011;9383;50.928;12.116;2023-02-28T06:03:59;5.70;;;4.50;;
18507;SDS011;9383;50.928;12.116;2023-02-28T06:06:27;6.77;;;4.73;;
18507;SDS011;9383;50.928;12.116;2023-02-28T06:08:55;5.07;;;4.27;;
18507;SDS011;9383;50.928;12.116;2023-02-28T06:11:22;5.00;;;4.50;;
18507;SDS011;9383;50.928;12.116;2023-02-28T06:13:56;7.00;;;4.93;;
18507;SDS011;9383;50.928;12.116;2023-02-28T06:16:25;5.40;;;4.57;;
18507;SDS011;9383;50.928;12.116;2023-02-28T06:18:52;6.07;;;4.97;;
18507;SDS011;9383;50.928;12.116;2023-02-28T06:21:21;9.40;;;5.43;;
18507;SDS011;9383;50.928;12.116;2023-02-28T06:23:48;6.73;;;5.40;;
18507;SDS011;9383;50.928;12.116;2023-02-28T06:26:14;6.90;;;4.93;;
18507;SDS011;9383;50.928;12.116;2023-02-28T06:28:41;5.03;;;4.60;;
18507;SDS011;9383;50.928;12.116;2023-02-28T06:31:09;5.70;;;5.20;;
18507;SDS011;9383;50.928;12.116;2023-02-28T06:33:37;5.63;;;5.07;;
18507;SDS011;9383;50.928;12.116;2023-02-28T06:36:08;6.40;;;4.97;;
18507;SDS011;9383;50.928;12.116;2023-02-28T06:38:35;5.67;;;5.13;;
18507;SDS011;9383;50.928;12.116;2023-02-28T06:41:03;5.70;;;5.17;;
18507;SDS011;9383;50.928;12.116;2023-02-28T06:43:31;5.80;;;5.10;;
18507;SDS011;9383;50.928;12.116;2023-02-28T06:46:00;6.60;;;5.80;;
18507;SDS011;9383;50.928;12.116;2023-02-28T06:48:29;7.47;;;5.73;;
18507;SDS011;9383;50.928;12.116;2023-02-28T06:51:01;7.70;;;5.77;;
18507;SDS011;9383;50.928;12.116;2023-02-28T06:53:32;7.33;;;5.83;;
18507;SDS011;9383;50.928;12.116;2023-02-28T06:55:59;6.50;;;5.00;;
18507;SDS011;9383;50.928;12.116;2023-02-28T06:58:34;5.87;;;5.27;;
18507;SDS011;9383;50.928;12.116;2023-02-28T07:01:01;6.07;;;5.37;;
18507;SDS011;9383;50.928;12.116;2023-02-28T07:03:28;6.27;;;4.60;;
18507;SDS011;9383;50.928;12.116;2023-02-28T07:05:54;5.57;;;4.93;;
18507;SDS011;9383;50.928;12.116;2023-02-28T07:08:22;6.80;;;5.10;;
18507;SDS011;9383;50.928;12.116;2023-02-28T07:10:56;6.00;;;5.03;;
18507;SDS011;9383;50.928;12.116;2023-02-28T07:13:23;6.90;;;4.97;;
18507;SDS011;9383;50.928;12.116;2023-02-28T07:15:59;5.47;;;4.97;;
18507;SDS011;9383;50.928;12.116;2023-02-28T07:18:28;7.17;;;5.23;;
18507;SDS011;9383;50.928;12.116;2023-02-28T07:20:54;5.80;;;4.97;;
18507;SDS011;9383;50.928;12.116;2023-02-28T07:23:21;6.13;;;5.17;;
18507;SDS011;9383;50.928;12.116;2023-02-28T07:25:50;6.03;;;4.90;;
18507;SDS011;9383;50.928;12.116;2023-02-28T07:28:18;5.80;;;5.20;;
18507;SDS011;9383;50.928;12.116;2023-02-28T07:30:44;5.60;;;5.10;;
18507;SDS011;9383;50.928;12.116;2023-02-28T07:33:11;5.13;;;4.63;;
18507;SDS011;9383;50.928;12.116;2023-02-28T07:35:37;6.90;;;5.18;;
18507;SDS011;9383;50.928;12.116;2023-02-28T07:38:04;6.63;;;5.30;;
18507;SDS011;9383;50.928;12.116;2023-02-28T07:40:33;7.05;;;5.50;;
18507;SDS011;9383;50.928;12.116;2023-02-28T07:43:00;6.93;;;5.22;;
18507;SDS011;9383;50.928;12.116;2023-02-28T07:45:27;5.88;;;5.35;;
18507;SDS011;9383;50.928;12.116;2023-02-28T07:47:56;6.20;;;5.20;;
18507;SDS011;9383;50.928;12.116;2023-02-28T07:50:23;6.63;;;5.70;;
18507;SDS011;9383;50.928;12.116;2023-02-28T07:52:50;6.38;;;5.22;;
18507;SDS011;9383;50.928;12.116;2023-02-28T07:55:16;6.22;;;5.47;;
18507;SDS011;9383;50.928;12.116;2023-02-28T07:57:43;7.15;;;5.82;;
18507;SDS011;9383;50.928;12.116;2023-02-28T08:00:10;5.80;;;5.30;;
18507;SDS011;9383;50.928;12.116;2023-02-28T08:02:39;7.20;;;5.30;;
18507;SDS011;9383;50.928;12.116;2023-02-28T08:05:06;6.30;;;5.05;;
18507;SDS011;9383;50.928;12.116;2023-02-28T08:07:33;6.55;;;5.30;;
18507;SDS011;9383;50.928;12.116;2023-02-28T08:10:00;6.68;;;5.50;;
18507;SDS011;9383;50.928;12.116;2023-02-28T08:12:26;5.60;;;5.10;;
18507;SDS011;9383;50.928;12.116;2023-02-28T08:14:53;6.05;;;5.45;;
18507;SDS011;9383;50.928;12.116;2023-02-28T08:17:19;5.85;;;5.25;;
18507;SDS011;9383;50.928;12.116;2023-02-28T08:19:46;7.85;;;5.60;;
18507;SDS011;9383;50.928;12.116;2023-02-28T08:22:12;6.18;;;5.57;;
18507;SDS011;9383;50.928;12.116;2023-02-28T08:24:40;6.30;;;5.13;;
18507;SDS011;9383;50.928;12.116;2023-02-28T08:27:08;7.22;;;5.63;;
18507;SDS011;9383;50.928;12.116;2023-02-28T08:29:36;7.15;;;5.20;;
18507;SDS011;9383;50.928;12.116;2023-02-28T08:32:04;5.45;;;4.85;;
18507;SDS011;9383;50.928;12.116;2023-02-28T08:34:31;5.43;;;4.93;;
18507;SDS011;9383;50.928;12.116;2023-02-28T08:36:57;6.53;;;5.43;;
18507;SDS011;9383;50.928;12.116;2023-02-28T08:39:24;5.70;;;4.97;;
18507;SDS011;9383;50.928;12.116;2023-02-28T08:41:51;5.65;;;4.78;;
18507;SDS011;9383;50.928;12.116;2023-02-28T08:44:17;6.22;;;4.90;;
18507;SDS011;9383;50.928;12.116;2023-02-28T08:46:44;5.25;;;4.75;;
18507;SDS011;9383;50.928;12.116;2023-02-28T08:49:10;5.45;;;4.95;;
18507;SDS011;9383;50.928;12.116;2023-02-28T08:51:38;4.68;;;4.28;;
18507;SDS011;9383;50.928;12.116;2023-02-28T08:54:04;5.05;;;4.55;;
18507;SDS011;9383;50.928;12.116;2023-02-28T08:56:31;5.22;;;4.72;;
18507;SDS011;9383;50.928;12.116;2023-02-28T08:58:57;5.65;;;4.75;;
18507;SDS011;9383;50.928;12.116;2023-02-28T09:01:25;6.18;;;4.57;;
18507;SDS011;9383;50.928;12.116;2023-02-28T09:03:54;5.72;;;4.68;;
18507;SDS011;9383;50.928;12.116;2023-02-28T09:06:23;6.00;;;4.97;;
18507;SDS011;9383;50.928;12.116;2023-02-28T09:08:51;5.45;;;4.95;;
18507;SDS011;9383;50.928;12.116;2023-02-28T09:11:18;5.78;;;5.18;;
18507;SDS011;9383;50.928;12.116;2023-02-28T09:13:45;5.00;;;4.53;;
18507;SDS011;9383;50.928;12.116;2023-02-28T09:16:13;5.60;;;4.57;;
18507;SDS011;9383;50.928;12.116;2023-02-28T09:18:41;6.38;;;4.25;;
18507;SDS011;9383;50.928;12.116;2023-02-28T09:21:11;4.95;;;4.40;;
18507;SDS011;9383;50.928;12.116;2023-02-28T09:23:43;5.18;;;4.68;;
18507;SDS011;9383;50.928;12.116;2023-02-28T09:26:14;5.50;;;5.00;;
18507;SDS011;9383;50.928;12.116;2023-02-28T09:28:45;5.20;;;4.70;;
18507;SDS011;9383;50.928;12.116;2023-02-28T09:31:13;4.97;;;4.55;;
18507;SDS011;9383;50.928;12.116;2023-02-28T09:33:41;4.95;;;4.55;;
18507;SDS011;9383;50.928;12.116;2023-02-28T09:36:07;5.63;;;4.97;;
18507;SDS011;9383;50.928;12.116;2023-02-28T09:38:34;6.25;;;4.82;;
18507;SDS011;9383;50.928;12.116;2023-02-28T09:41:03;5.53;;;4.70;;
18507;SDS011;9383;50.928;12.116;2023-02-28T09:43:38;5.40;;;4.88;;
18507;SDS011;9383;50.928;12.116;2023-02-28T09:48:47;5.28;;;4.78;;
18507;SDS011;9383;50.928;12.116;2023-02-28T09:51:22;5.03;;;4.55;;
18507;SDS011;9383;50.928;12.116;2023-02-28T09:54:15;5.63;;;5.07;;
18507;SDS011;9383;50.928;12.116;2023-02-28T09:56:49;5.68;;;5.18;;
18507;SDS011;9383;50.928;12.116;2023-02-28T10:05:30;5.93;;;4.85;;
18507;SDS011;9383;50.928;12.116;2023-02-28T10:08:19;6.18;;;4.88;;
18507;SDS011;9383;50.928;12.116;2023-02-28T10:11:11;5.88;;;5.35;;
18507;SDS011;9383;50.928;12.116;2023-02-28T10:16:39;5.72;;;4.70;;
18507;SDS011;9383;50.928;12.116;2023-02-28T10:19:13;4.72;;;3.90;;
18507;SDS011;9383;50.928;12.116;2023-02-28T10:21:43;5.22;;;4.32;;
18507;SDS011;9383;50.928;12.116;2023-02-28T10:27:01;4.80;;;4.40;;
18507;SDS011;9383;50.928;12.116;2023-02-28T10:29:40;4.80;;;4.25;;
18507;SDS011;9383;50.928;12.116;2023-02-28T10:32:10;4.45;;;4.05;;
18507;SDS011;9383;50.928;12.116;2023-02-28T10:34:50;4.40;;;4.00;;
18507;SDS011;9383;50.928;12.116;2023-02-28T10:37:27;5.82;;;4.80;;
18507;SDS011;9383;50.928;12.116;2023-02-28T10:39:53;5.13;;;4.50;;
18507;SDS011;9383;50.928;12.116;2023-02-28T10:45:09;5.10;;;4.70;;
18507;SDS011;9383;50.928;12.116;2023-02-28T10:47:48;4.53;;;4.07;;
18507;SDS011;9383;50.928;12.116;2023-02-28T10:50:32;5.35;;;4.40;;
18507;SDS011;9383;50.928;12.116;2023-02-28T10:53:17;5.05;;;4.35;;
18507;SDS011;9383;50.928;12.116;2023-02-28T10:58:31;5.03;;;4.53;;
18507;SDS011;9383;50.928;12.116;2023-02-28T11:01:23;5.13;;;4.63;;
18507;SDS011;9383;50.928;12.116;2023-02-28T11:04:17;4.85;;;4.40;;
18507;SDS011;9383;50.928;12.116;2023-02-28T11:07:03;4.95;;;4.22;;
18507;SDS011;9383;50.928;12.116;2023-02-28T11:09:48;4.70;;;4.05;;
18507;SDS011;9383;50.928;12.116;2023-02-28T11:12:36;4.53;;;4.10;;
18507;SDS011;9383;50.928;12.116;2023-02-28T11:15:21;5.28;;;4.78;;
18507;SDS011;9383;50.928;12.116;2023-02-28T11:18:14;4.30;;;3.90;;
18507;SDS011;9383;50.928;12.116;2023-02-28T11:20:50;4.85;;;4.32;;
18507;SDS011;9383;50.928;12.116;2023-02-28T11:23:19;5.25;;;4.75;;
18507;SDS011;9383;50.928;12.116;2023-02-28T11:25:50;5.40;;;4.90;;
18507;SDS011;9383;50.928;12.116;2023-02-28T11:28:23;4.93;;;4.35;;
18507;SDS011;9383;50.928;12.116;2023-02-28T11:31:15;5.05;;;4.55;;
18507;SDS011;9383;50.928;12.116;2023-02-28T11:36:27;7.63;;;5.50;;
18507;SDS011;9383;50.928;12.116;2023-02-28T11:38:58;5.40;;;4.90;;
18507;SDS011;9383;50.928;12.116;2023-02-28T11:44:18;5.85;;;5.22;;
18507;SDS011;9383;50.928;12.116;2023-02-28T11:52:37;5.47;;;4.82;;
18507;SDS011;9383;50.928;12.116;2023-02-28T11:55:23;5.50;;;4.82;;
18507;SDS011;9383;50.928;12.116;2023-02-28T12:01:06;6.07;;;5.47;;
18507;SDS011;9383;50.928;12.116;2023-02-28T12:03:44;6.60;;;5.78;;
18507;SDS011;9383;50.928;12.116;2023-02-28T12:06:30;6.00;;;5.38;;
18507;SDS011;9383;50.928;12.116;2023-02-28T12:09:08;6.38;;;5.72;;
18507;SDS011;9383;50.928;12.116;2023-02-28T12:11:52;6.03;;;5.43;;
18507;SDS011;9383;50.928;12.116;2023-02-28T12:20:10;5.28;;;4.80;;
18507;SDS011;9383;50.928;12.116;2023-02-28T12:28:57;7.13;;;5.72;;
18507;SDS011;9383;50.928;12.116;2023-02-28T12:31:56;6.07;;;5.47;;
18507;SDS011;9383;50.928;12.116;2023-02-28T12:34:47;5.90;;;5.30;;
18507;SDS011;9383;50.928;12.116;2023-02-28T12:37:19;6.07;;;5.47;;
18507;SDS011;9383;50.928;12.116;2023-02-28T12:40:00;6.00;;;5.40;;
18507;SDS011;9383;50.928;12.116;2023-02-28T12:42:36;7.68;;;6.88;;
18507;SDS011;9383;50.928;12.116;2023-02-28T12:47:42;7.82;;;5.78;;
18507;SDS011;9383;50.928;12.116;2023-02-28T12:50:13;7.18;;;5.55;;
18507;SDS011;9383;50.928;12.116;2023-02-28T12:52:43;6.13;;;5.57;;
18507;SDS011;9383;50.928;12.116;2023-02-28T12:55:21;6.53;;;5.93;;
18507;SDS011;9383;50.928;12.116;2023-02-28T12:57:58;6.28;;;5.68;;
18507;SDS011;9383;50.928;12.116;2023-02-28T13:00:34;6.15;;;5.65;;
18507;SDS011;9383;50.928;12.116;2023-02-28T13:03:09;6.93;;;5.47;;
18507;SDS011;9383;50.928;12.116;2023-02-28T13:06:01;6.45;;;5.85;;
18507;SDS011;9383;50.928;12.116;2023-02-28T13:08:51;7.25;;;5.90;;
18507;SDS011;9383;50.928;12.116;2023-02-28T13:14:28;6.78;;;6.22;;
18507;SDS011;9383;50.928;12.116;2023-02-28T13:16:59;6.18;;;5.57;;
18507;SDS011;9383;50.928;12.116;2023-02-28T13:19:56;7.40;;;5.80;;
18507;SDS011;9383;50.928;12.116;2023-02-28T13:24:54;6.75;;;6.15;;
18507;SDS011;9383;50.928;12.116;2023-02-28T13:27:24;6.60;;;6.00;;
18507;SDS011;9383;50.928;12.116;2023-02-28T13:35:48;7.18;;;5.95;;
18507;SDS011;9383;50.928;12.116;2023-02-28T13:38:36;6.95;;;6.25;;
18507;SDS011;9383;50.928;12.116;2023-02-28T13:46:28;8.20;;;6.28;;
18507;SDS011;9383;50.928;12.116;2023-02-28T13:48:55;6.50;;;5.90;;
18507;SDS011;9383;50.928;12.116;2023-02-28T13:51:43;6.55;;;5.47;;
18507;SDS011;9383;50.928;12.116;2023-02-28T13:54:20;7.55;;;6.20;;
18507;SDS011;9383;50.928;12.116;2023-02-28T13:59:26;6.88;;;6.13;;
18507;SDS011;9383;50.928;12.116;2023-02-28T14:05:00;6.45;;;5.82;;
18507;SDS011;9383;50.928;12.116;2023-02-28T14:07:33;7.88;;;6.53;;
18507;SDS011;9383;50.928;12.116;2023-02-28T14:10:30;6.68;;;6.07;;
18507;SDS011;9383;50.928;12.116;2023-02-28T14:15:59;6.65;;;6.05;;
18507;SDS011;9383;50.928;12.116;2023-02-28T14:18:28;7.13;;;6.53;;
18507;SDS011;9383;50.928;12.116;2023-02-28T14:21:10;7.25;;;6.65;;
18507;SDS011;9383;50.928;12.116;2023-02-28T14:27:00;7.20;;;6.50;;
18507;SDS011;9383;50.928;12.116;2023-02-28T14:38:32;6.85;;;6.25;;
18507;SDS011;9383;50.928;12.116;2023-02-28T14:41:14;7.35;;;6.35;;
18507;SDS011;9383;50.928;12.116;2023-02-28T14:43:56;6.88;;;6.28;;
18507;SDS011;9383;50.928;12.116;2023-02-28T14:46:25;7.13;;;6.22;;
18507;SDS011;9383;50.928;12.116;2023-02-28T14:49:04;7.82;;;6.18;;
18507;SDS011;9383;50.928;12.116;2023-02-28T14:51:33;7.63;;;6.40;;
18507;SDS011;9383;50.928;12.116;2023-02-28T14:54:00;7.75;;;6.40;;
18507;SDS011;9383;50.928;12.116;2023-02-28T14:56:30;7.78;;;6.65;;
18507;SDS011;9383;50.928;12.116;2023-02-28T14:59:01;7.35;;;6.25;;
18507;SDS011;9383;50.928;12.116;2023-02-28T15:01:28;7.38;;;6.68;;
18507;SDS011;9383;50.928;12.116;2023-02-28T15:04:04;6.78;;;6.00;;
18507;SDS011;9383;50.928;12.116;2023-02-28T15:06:32;7.95;;;6.20;;
18507;SDS011;9383;50.928;12.116;2023-02-28T15:09:09;7.40;;;6.55;;
18507;SDS011;9383;50.928;12.116;2023-02-28T15:11:40;7.40;;;6.70;;
18507;SDS011;9383;50.928;12.116;2023-02-28T15:14:13;7.32;;;6.70;;
18507;SDS011;9383;50.928;12.116;2023-02-28T15:16:48;7.70;;;6.90;;
18507;SDS011;9383;50.928;12.116;2023-02-28T15:19:39;7.18;;;6.50;;
18507;SDS011;9383;50.928;12.116;2023-02-28T15:22:15;7.57;;;6.82;;
18507;SDS011;9383;50.928;12.116;2023-02-28T15:24:46;7.78;;;7.07;;
18507;SDS011;9383;50.928;12.116;2023-02-28T15:27:18;7.45;;;6.70;;
18507;SDS011;9383;50.928;12.116;2023-02-28T15:29:48;7.70;;;6.95;;
18507;SDS011;9383;50.928;12.116;2023-02-28T15:32:29;9.57;;;7.07;;
18507;SDS011;9383;50.928;12.116;2023-02-28T15:34:58;7.35;;;6.65;;
18507;SDS011;9383;50.928;12.116;2023-02-28T15:37:51;7.82;;;7.00;;
18507;SDS011;9383;50.928;12.116;2023-02-28T15:40:27;7.80;;;7.07;;
18507;SDS011;9383;50.928;12.116;2023-02-28T15:45:34;7.70;;;6.78;;
18507;SDS011;9383;50.928;12.116;2023-02-28T15:48:17;8.07;;;6.85;;
18507;SDS011;9383;50.928;12.116;2023-02-28T15:50:48;7.85;;;7.07;;
18507;SDS011;9383;50.928;12.116;2023-02-28T15:53:19;8.25;;;7.43;;
18507;SDS011;9383;50.928;12.116;2023-02-28T15:56:00;8.07;;;7.28;;
18507;SDS011;9383;50.928;12.116;2023-02-28T15:58:29;7.30;;;6.60;;
18507;SDS011;9383;50.928;12.116;2023-02-28T16:01:38;8.10;;;7.30;;
18507;SDS011;9383;50.928;12.116;2023-02-28T16:04:11;8.30;;;7.28;;
18507;SDS011;9383;50.928;12.116;2023-02-28T16:07:01;8.20;;;7.30;;
18507;SDS011;9383;50.928;12.116;2023-02-28T16:09:29;8.02;;;7.22;;
18507;SDS011;9383;50.928;12.116;2023-02-28T16:12:00;7.95;;;7.18;;
18507;SDS011;9383;50.928;12.116;2023-02-28T16:14:28;8.20;;;7.32;;
18507;SDS011;9383;50.928;12.116;2023-02-28T16:16:56;9.50;;;8.15;;
18507;SDS011;9383;50.928;12.116;2023-02-28T16:19:30;8.55;;;7.60;;
18507;SDS011;9383;50.928;12.116;2023-02-28T16:21:57;9.55;;;7.90;;
18507;SDS011;9383;50.928;12.116;2023-02-28T16:24:23;8.57;;;7.68;;
18507;SDS011;9383;50.928;12.116;2023-02-28T16:26:50;8.65;;;7.85;;
18507;SDS011;9383;50.928;12.116;2023-02-28T16:29:27;8.30;;;7.50;;
18507;SDS011;9383;50.928;12.116;2023-02-28T16:31:57;8.23;;;7.35;;
18507;SDS011;9383;50.928;12.116;2023-02-28T16:34:24;8.65;;;7.75;;
18507;SDS011;9383;50.928;12.116;2023-02-28T16:36:51;9.07;;;8.00;;
18507;SDS011;9383;50.928;12.116;2023-02-28T16:39:18;9.43;;;8.43;;
18507;SDS011;9383;50.928;12.116;2023-02-28T16:41:46;8.63;;;7.82;;
18507;SDS011;9383;50.928;12.116;2023-02-28T16:44:35;8.82;;;7.93;;
18507;SDS011;9383;50.928;12.116;2023-02-28T16:47:02;8.90;;;7.97;;
18507;SDS011;9383;50.928;12.116;2023-02-28T16:49:29;9.73;;;8.82;;
18507;SDS011;9383;50.928;12.116;2023-02-28T16:51:56;9.70;;;8.70;;
18507;SDS011;9383;50.928;12.116;2023-02-28T16:54:23;9.73;;;8.73;;
18507;SDS011;9383;50.928;12.116;2023-02-28T16:56:50;9.63;;;8.63;;
18507;SDS011;9383;50.928;12.116;2023-02-28T16:59:18;10.00;;;9.00;;
18507;SDS011;9383;50.928;12.116;2023-02-28T17:01:49;11.52;;;9.50;;
18507;SDS011;9383;50.928;12.116;2023-02-28T17:04:17;11.75;;;9.25;;
18507;SDS011;9383;50.928;12.116;2023-02-28T17:06:44;11.82;;;9.27;;
18507;SDS011;9383;50.928;12.116;2023-02-28T17:09:16;12.70;;;9.57;;
18507;SDS011;9383;50.928;12.116;2023-02-28T17:11:45;10.60;;;9.50;;
18507;SDS011;9383;50.928;12.116;2023-02-28T17:14:12;10.10;;;9.10;;
18507;SDS011;9383;50.928;12.116;2023-02-28T17:16:39;10.18;;;9.18;;
18507;SDS011;9383;50.928;12.116;2023-02-28T17:19:11;10.13;;;9.13;;
18507;SDS011;9383;50.928;12.116;2023-02-28T17:21:40;9.85;;;8.85;;